sensor_id;sensor_type;location;lat;lon;timestamp;temperature;humidity
26479;DHT22;14163;-26.142;27.992;2022-07-29T00:01:22;14.90;99.90
26479;DHT22;14163;-26.142;27.992;2022-07-29T00:03:51;14.90;99.90
26479;DHT22;14163;-26.142;27.992;2022-07-29T00:06:20;15.00;99.90
26479;DHT22;14163;-26.142;27.992;2022-07-29T00:08:50;15.00;99.90
26479;DHT22;14163;-26.142;27.992;2022-07-29T00:11:21;14.90;99.90
26479;DHT22;14163;-26.142;27.992;2022-07-29T00:13:50;14.90;99.90
26479;DHT22;14163;-26.142;27.992;2022-07-29T00:16:19;14.80;99.90
26479;DHT22;14163;-26.142;27.992;2022-07-29T00:18:48;14.80;99.90
26479;DHT22;14163;-26.142;27.992;2022-07-29T00:21:18;14.80;99.90
26479;DHT22;14163;-26.142;27.992;2022-07-29T00:23:47;14.80;99.90
26479;DHT22;14163;-26.142;27.992;2022-07-29T00:26:16;14.80;99.90
26479;DHT22;14163;-26.142;27.992;2022-07-29T00:28:47;14.70;99.90
26479;DHT22;14163;-26.142;27.992;2022-07-29T00:31:16;14.60;99.90
26479;DHT22;14163;-26.142;27.992;2022-07-29T00:33:45;14.50;99.90
26479;DHT22;14163;-26.142;27.992;2022-07-29T00:36:14;14.40;99.90
26479;DHT22;14163;-26.142;27.992;2022-07-29T00:38:42;14.40;99.90
26479;DHT22;14163;-26.142;27.992;2022-07-29T00:41:12;14.30;99.90
26479;DHT22;14163;-26.142;27.992;2022-07-29T00:43:42;14.30;99.90
26479;DHT22;14163;-26.142;27.992;2022-07-29T00:46:13;14.30;99.90
26479;DHT22;14163;-26.142;27.992;2022-07-29T00:48:42;14.30;99.90
26479;DHT22;14163;-26.142;27.992;2022-07-29T00:51:12;14.40;99.90
26479;DHT22;14163;-26.142;27.992;2022-07-29T00:53:42;14.50;99.90
26479;DHT22;14163;-26.142;27.992;2022-07-29T00:56:11;14.60;99.90
26479;DHT22;14163;-26.142;27.992;2022-07-29T00:58:41;14.40;99.90
26479;DHT22;14163;-26.142;27.992;2022-07-29T01:01:12;14.40;99.90
26479;DHT22;14163;-26.142;27.992;2022-07-29T01:03:41;14.40;99.90
26479;DHT22;14163;-26.142;27.992;2022-07-29T01:06:10;14.50;99.90
26479;DHT22;14163;-26.142;27.992;2022-07-29T01:08:40;14.50;99.90
26479;DHT22;14163;-26.142;27.992;2022-07-29T01:11:09;14.50;99.90
26479;DHT22;14163;-26.142;27.992;2022-07-29T01:13:39;14.50;99.90
26479;DHT22;14163;-26.142;27.992;2022-07-29T01:16:14;14.40;99.90
26479;DHT22;14163;-26.142;27.992;2022-07-29T01:18:47;14.30;99.90
26479;DHT22;14163;-26.142;27.992;2022-07-29T01:21:34;14.30;99.90
26479;DHT22;14163;-26.142;27.992;2022-07-29T01:24:15;14.10;99.90
26479;DHT22;14163;-26.142;27.992;2022-07-29T01:26:57;14.10;99.90
26479;DHT22;14163;-26.142;27.992;2022-07-29T01:29:32;14.10;99.90
26479;DHT22;14163;-26.142;27.992;2022-07-29T01:32:03;14.10;99.90
26479;DHT22;14163;-26.142;27.992;2022-07-29T01:34:40;14.00;99.90
26479;DHT22;14163;-26.142;27.992;2022-07-29T01:37:18;14.20;99.90
26479;DHT22;14163;-26.142;27.992;2022-07-29T01:39:49;14.10;99.90
26479;DHT22;14163;-26.142;27.992;2022-07-29T01:42:25;14.00;99.90
26479;DHT22;14163;-26.142;27.992;2022-07-29T01:45:00;13.90;99.90
26479;DHT22;14163;-26.142;27.992;2022-07-29T01:47:35;13.80;99.90
26479;DHT22;14163;-26.142;27.992;2022-07-29T01:50:09;13.70;99.90
26479;DHT22;14163;-26.142;27.992;2022-07-29T01:52:44;13.60;99.90
26479;DHT22;14163;-26.142;27.992;2022-07-29T01:55:17;13.50;99.90
26479;DHT22;14163;-26.142;27.992;2022-07-29T01:57:48;13.60;99.90
26479;DHT22;14163;-26.142;27.992;2022-07-29T02:00:20;13.70;99.90
26479;DHT22;14163;-26.142;27.992;2022-07-29T02:02:51;13.80;99.90
26479;DHT22;14163;-26.142;27.992;2022-07-29T02:05:23;14.00;99.90
26479;DHT22;14163;-26.142;27.992;2022-07-29T02:07:54;13.90;99.90
26479;DHT22;14163;-26.142;27.992;2022-07-29T02:10:26;13.80;99.90
26479;DHT22;14163;-26.142;27.992;2022-07-29T02:12:57;13.80;99.90
26479;DHT22;14163;-26.142;27.992;2022-07-29T02:15:30;13.70;99.90
26479;DHT22;14163;-26.142;27.992;2022-07-29T02:18:04;13.60;99.90
26479;DHT22;14163;-26.142;27.992;2022-07-29T02:20:34;13.60;99.90
26479;DHT22;14163;-26.142;27.992;2022-07-29T02:23:05;13.60;99.90
26479;DHT22;14163;-26.142;27.992;2022-07-29T02:25:35;13.90;99.90
26479;DHT22;14163;-26.142;27.992;2022-07-29T02:28:05;14.10;99.90
26479;DHT22;14163;-26.142;27.992;2022-07-29T02:30:38;14.10;99.90
26479;DHT22;14163;-26.142;27.992;2022-07-29T02:33:10;14.00;99.90
26479;DHT22;14163;-26.142;27.992;2022-07-29T02:35:41;13.90;99.90
26479;DHT22;14163;-26.142;27.992;2022-07-29T02:38:14;13.70;99.90
26479;DHT22;14163;-26.142;27.992;2022-07-29T02:41:03;13.60;99.90
26479;DHT22;14163;-26.142;27.992;2022-07-29T02:43:34;13.70;99.90
26479;DHT22;14163;-26.142;27.992;2022-07-29T02:46:19;13.80;99.90
26479;DHT22;14163;-26.142;27.992;2022-07-29T02:48:58;13.90;99.90
26479;DHT22;14163;-26.142;27.992;2022-07-29T02:51:33;13.90;99.90
26479;DHT22;14163;-26.142;27.992;2022-07-29T02:54:08;14.00;99.90
26479;DHT22;14163;-26.142;27.992;2022-07-29T02:56:40;14.00;99.90
26479;DHT22;14163;-26.142;27.992;2022-07-29T02:59:11;14.00;99.90
26479;DHT22;14163;-26.142;27.992;2022-07-29T03:01:43;14.00;99.90
26479;DHT22;14163;-26.142;27.992;2022-07-29T03:04:14;13.80;99.90
26479;DHT22;14163;-26.142;27.992;2022-07-29T03:06:44;13.80;99.90
26479;DHT22;14163;-26.142;27.992;2022-07-29T03:09:14;13.80;99.90
26479;DHT22;14163;-26.142;27.992;2022-07-29T03:11:44;13.70;99.90
26479;DHT22;14163;-26.142;27.992;2022-07-29T03:14:14;13.80;99.90
26479;DHT22;14163;-26.142;27.992;2022-07-29T03:16:46;13.90;99.90
26479;DHT22;14163;-26.142;27.992;2022-07-29T03:19:16;13.80;99.90
26479;DHT22;14163;-26.142;27.992;2022-07-29T03:21:45;13.80;99.90
26479;DHT22;14163;-26.142;27.992;2022-07-29T03:24:26;13.90;99.90
26479;DHT22;14163;-26.142;27.992;2022-07-29T03:26:55;14.00;99.90
26479;DHT22;14163;-26.142;27.992;2022-07-29T03:29:25;13.80;99.90
26479;DHT22;14163;-26.142;27.992;2022-07-29T03:31:56;13.80;99.90
26479;DHT22;14163;-26.142;27.992;2022-07-29T03:34:26;13.80;99.90
26479;DHT22;14163;-26.142;27.992;2022-07-29T03:36:55;13.80;99.90
26479;DHT22;14163;-26.142;27.992;2022-07-29T03:39:27;13.80;99.90
26479;DHT22;14163;-26.142;27.992;2022-07-29T03:42:00;13.90;99.90
26479;DHT22;14163;-26.142;27.992;2022-07-29T03:44:30;14.00;99.90
26479;DHT22;14163;-26.142;27.992;2022-07-29T03:47:02;14.00;99.90
26479;DHT22;14163;-26.142;27.992;2022-07-29T03:49:33;13.80;99.90
26479;DHT22;14163;-26.142;27.992;2022-07-29T03:52:05;13.70;99.90
26479;DHT22;14163;-26.142;27.992;2022-07-29T03:54:34;13.80;99.90
26479;DHT22;14163;-26.142;27.992;2022-07-29T03:57:04;13.70;99.90
26479;DHT22;14163;-26.142;27.992;2022-07-29T03:59:34;13.60;99.90
26479;DHT22;14163;-26.142;27.992;2022-07-29T04:02:09;13.40;99.90
26479;DHT22;14163;-26.142;27.992;2022-07-29T04:04:39;13.30;99.90
26479;DHT22;14163;-26.142;27.992;2022-07-29T04:07:12;13.20;99.90
26479;DHT22;14163;-26.142;27.992;2022-07-29T04:09:41;13.20;99.90
26479;DHT22;14163;-26.142;27.992;2022-07-29T04:12:11;13.30;99.90
26479;DHT22;14163;-26.142;27.992;2022-07-29T04:14:40;13.20;99.90
26479;DHT22;14163;-26.142;27.992;2022-07-29T04:17:11;13.10;99.90
26479;DHT22;14163;-26.142;27.992;2022-07-29T04:19:40;13.10;99.90
26479;DHT22;14163;-26.142;27.992;2022-07-29T04:22:09;13.10;99.90
26479;DHT22;14163;-26.142;27.992;2022-07-29T04:24:38;13.10;99.90
26479;DHT22;14163;-26.142;27.992;2022-07-29T04:27:08;13.00;99.90
26479;DHT22;14163;-26.142;27.992;2022-07-29T04:29:37;13.00;99.90
26479;DHT22;14163;-26.142;27.992;2022-07-29T04:32:06;13.00;99.90
26479;DHT22;14163;-26.142;27.992;2022-07-29T04:34:37;13.00;99.90
26479;DHT22;14163;-26.142;27.992;2022-07-29T04:37:06;13.00;99.90
26479;DHT22;14163;-26.142;27.992;2022-07-29T04:39:36;13.10;99.90
26479;DHT22;14163;-26.142;27.992;2022-07-29T04:42:05;13.20;99.90
26479;DHT22;14163;-26.142;27.992;2022-07-29T04:44:34;13.20;99.90
26479;DHT22;14163;-26.142;27.992;2022-07-29T04:47:07;13.20;99.90
26479;DHT22;14163;-26.142;27.992;2022-07-29T04:49:40;13.30;99.90
26479;DHT22;14163;-26.142;27.992;2022-07-29T04:52:09;13.30;99.90
26479;DHT22;14163;-26.142;27.992;2022-07-29T04:54:38;13.40;99.90
26479;DHT22;14163;-26.142;27.992;2022-07-29T04:57:07;13.50;99.90
26479;DHT22;14163;-26.142;27.992;2022-07-29T04:59:37;13.60;99.90
26479;DHT22;14163;-26.142;27.992;2022-07-29T05:02:06;13.50;99.90
26479;DHT22;14163;-26.142;27.992;2022-07-29T05:04:35;13.50;99.90
26479;DHT22;14163;-26.142;27.992;2022-07-29T05:07:06;13.60;99.90
26479;DHT22;14163;-26.142;27.992;2022-07-29T05:09:35;13.60;99.90
26479;DHT22;14163;-26.142;27.992;2022-07-29T05:12:05;13.50;99.90
26479;DHT22;14163;-26.142;27.992;2022-07-29T05:14:34;13.40;99.90
26479;DHT22;14163;-26.142;27.992;2022-07-29T05:17:04;13.30;99.90
26479;DHT22;14163;-26.142;27.992;2022-07-29T05:19:33;13.30;99.90
26479;DHT22;14163;-26.142;27.992;2022-07-29T05:22:02;13.30;99.90
26479;DHT22;14163;-26.142;27.992;2022-07-29T05:24:33;13.40;99.90
26479;DHT22;14163;-26.142;27.992;2022-07-29T05:27:03;13.40;99.90
26479;DHT22;14163;-26.142;27.992;2022-07-29T05:29:32;13.40;99.90
26479;DHT22;14163;-26.142;27.992;2022-07-29T05:32:01;13.50;99.90
26479;DHT22;14163;-26.142;27.992;2022-07-29T05:34:31;13.50;99.90
26479;DHT22;14163;-26.142;27.992;2022-07-29T05:37:00;13.50;99.90
26479;DHT22;14163;-26.142;27.992;2022-07-29T05:39:29;13.60;99.90
26479;DHT22;14163;-26.142;27.992;2022-07-29T05:42:00;13.50;99.90
26479;DHT22;14163;-26.142;27.992;2022-07-29T05:44:29;13.30;99.90
26479;DHT22;14163;-26.142;27.992;2022-07-29T05:46:59;13.30;99.90
26479;DHT22;14163;-26.142;27.992;2022-07-29T05:49:28;13.30;99.90
26479;DHT22;14163;-26.142;27.992;2022-07-29T05:51:58;13.40;99.90
26479;DHT22;14163;-26.142;27.992;2022-07-29T05:54:27;13.30;99.90
26479;DHT22;14163;-26.142;27.992;2022-07-29T05:56:59;13.40;99.90
26479;DHT22;14163;-26.142;27.992;2022-07-29T05:59:28;13.50;99.90
26479;DHT22;14163;-26.142;27.992;2022-07-29T06:01:57;13.50;99.90
26479;DHT22;14163;-26.142;27.992;2022-07-29T06:04:26;13.50;99.90
26479;DHT22;14163;-26.142;27.992;2022-07-29T06:06:55;13.30;99.90
26479;DHT22;14163;-26.142;27.992;2022-07-29T06:09:25;13.20;99.90
26479;DHT22;14163;-26.142;27.992;2022-07-29T06:11:54;13.10;99.90
26479;DHT22;14163;-26.142;27.992;2022-07-29T06:14:26;12.90;99.90
26479;DHT22;14163;-26.142;27.992;2022-07-29T06:16:56;12.90;99.90
26479;DHT22;14163;-26.142;27.992;2022-07-29T06:19:25;13.20;99.90
26479;DHT22;14163;-26.142;27.992;2022-07-29T06:21:54;13.40;99.90
26479;DHT22;14163;-26.142;27.992;2022-07-29T06:24:23;13.40;99.90
26479;DHT22;14163;-26.142;27.992;2022-07-29T06:26:52;13.50;99.90
26479;DHT22;14163;-26.142;27.992;2022-07-29T06:29:22;13.50;99.90
26479;DHT22;14163;-26.142;27.992;2022-07-29T06:31:53;13.50;99.90
26479;DHT22;14163;-26.142;27.992;2022-07-29T06:34:22;13.50;99.90
26479;DHT22;14163;-26.142;27.992;2022-07-29T06:36:51;13.60;99.90
26479;DHT22;14163;-26.142;27.992;2022-07-29T06:39:21;13.60;99.90
26479;DHT22;14163;-26.142;27.992;2022-07-29T06:41:50;13.70;99.90
26479;DHT22;14163;-26.142;27.992;2022-07-29T06:44:21;13.80;99.90
26479;DHT22;14163;-26.142;27.992;2022-07-29T06:46:52;13.80;99.90
26479;DHT22;14163;-26.142;27.992;2022-07-29T06:49:21;13.90;99.90
26479;DHT22;14163;-26.142;27.992;2022-07-29T06:51:51;14.00;99.90
26479;DHT22;14163;-26.142;27.992;2022-07-29T06:54:21;14.00;99.90
26479;DHT22;14163;-26.142;27.992;2022-07-29T06:56:50;13.90;99.90
26479;DHT22;14163;-26.142;27.992;2022-07-29T06:59:19;13.90;99.90
26479;DHT22;14163;-26.142;27.992;2022-07-29T07:01:48;13.90;99.90
26479;DHT22;14163;-26.142;27.992;2022-07-29T07:04:19;13.80;99.90
26479;DHT22;14163;-26.142;27.992;2022-07-29T07:06:49;13.60;99.90
26479;DHT22;14163;-26.142;27.992;2022-07-29T07:09:18;13.50;99.90
26479;DHT22;14163;-26.142;27.992;2022-07-29T07:11:47;13.60;99.90
26479;DHT22;14163;-26.142;27.992;2022-07-29T07:14:16;13.70;99.90
26479;DHT22;14163;-26.142;27.992;2022-07-29T07:16:45;13.90;99.90
26479;DHT22;14163;-26.142;27.992;2022-07-29T07:19:15;13.90;99.90
26479;DHT22;14163;-26.142;27.992;2022-07-29T07:21:47;13.90;99.90
26479;DHT22;14163;-26.142;27.992;2022-07-29T07:24:16;14.00;99.90
26479;DHT22;14163;-26.142;27.992;2022-07-29T07:26:46;13.90;99.90
26479;DHT22;14163;-26.142;27.992;2022-07-29T07:29:15;13.80;99.90
26479;DHT22;14163;-26.142;27.992;2022-07-29T07:31:44;13.90;99.90
26479;DHT22;14163;-26.142;27.992;2022-07-29T07:34:14;13.90;99.90
26479;DHT22;14163;-26.142;27.992;2022-07-29T07:36:43;14.10;99.90
26479;DHT22;14163;-26.142;27.992;2022-07-29T07:39:13;14.20;99.90
26479;DHT22;14163;-26.142;27.992;2022-07-29T07:41:43;14.30;99.90
26479;DHT22;14163;-26.142;27.992;2022-07-29T07:44:12;14.20;99.90
26479;DHT22;14163;-26.142;27.992;2022-07-29T07:46:41;14.20;99.90
26479;DHT22;14163;-26.142;27.992;2022-07-29T07:49:11;14.30;99.90
26479;DHT22;14163;-26.142;27.992;2022-07-29T07:51:40;14.40;99.90
26479;DHT22;14163;-26.142;27.992;2022-07-29T07:54:10;14.50;99.90
26479;DHT22;14163;-26.142;27.992;2022-07-29T07:56:41;14.60;99.90
26479;DHT22;14163;-26.142;27.992;2022-07-29T07:59:10;14.70;99.90
26479;DHT22;14163;-26.142;27.992;2022-07-29T08:01:39;14.90;99.90
26479;DHT22;14163;-26.142;27.992;2022-07-29T08:04:08;14.80;99.90
26479;DHT22;14163;-26.142;27.992;2022-07-29T08:06:37;14.70;99.90
26479;DHT22;14163;-26.142;27.992;2022-07-29T08:09:07;14.60;99.90
26479;DHT22;14163;-26.142;27.992;2022-07-29T08:11:36;14.70;99.90
26479;DHT22;14163;-26.142;27.992;2022-07-29T08:14:07;15.00;99.90
26479;DHT22;14163;-26.142;27.992;2022-07-29T08:16:36;15.30;99.90
26479;DHT22;14163;-26.142;27.992;2022-07-29T08:19:05;15.30;99.90
26479;DHT22;14163;-26.142;27.992;2022-07-29T08:21:35;15.30;99.90
26479;DHT22;14163;-26.142;27.992;2022-07-29T08:24:05;15.50;99.90
26479;DHT22;14163;-26.142;27.992;2022-07-29T08:26:50;15.80;99.90
26479;DHT22;14163;-26.142;27.992;2022-07-29T08:29:21;15.70;99.90
26479;DHT22;14163;-26.142;27.992;2022-07-29T08:31:51;15.80;99.90
26479;DHT22;14163;-26.142;27.992;2022-07-29T08:34:20;15.90;99.90
26479;DHT22;14163;-26.142;27.992;2022-07-29T08:36:49;16.00;99.90
26479;DHT22;14163;-26.142;27.992;2022-07-29T08:39:18;16.10;99.90
26479;DHT22;14163;-26.142;27.992;2022-07-29T08:41:48;16.10;99.90
26479;DHT22;14163;-26.142;27.992;2022-07-29T08:44:17;16.00;99.90
26479;DHT22;14163;-26.142;27.992;2022-07-29T08:46:50;15.90;99.90
26479;DHT22;14163;-26.142;27.992;2022-07-29T08:49:20;16.00;99.90
26479;DHT22;14163;-26.142;27.992;2022-07-29T08:51:49;16.30;99.90
26479;DHT22;14163;-26.142;27.992;2022-07-29T08:54:18;16.40;99.90
26479;DHT22;14163;-26.142;27.992;2022-07-29T08:56:50;16.40;99.90
26479;DHT22;14163;-26.142;27.992;2022-07-29T08:59:20;16.60;99.90
26479;DHT22;14163;-26.142;27.992;2022-07-29T09:01:53;16.70;99.90
26479;DHT22;14163;-26.142;27.992;2022-07-29T09:04:27;16.70;99.90
26479;DHT22;14163;-26.142;27.992;2022-07-29T09:07:00;16.90;99.90
26479;DHT22;14163;-26.142;27.992;2022-07-29T09:09:30;16.80;99.90
26479;DHT22;14163;-26.142;27.992;2022-07-29T09:11:59;16.80;99.90
26479;DHT22;14163;-26.142;27.992;2022-07-29T09:14:30;16.90;99.90
26479;DHT22;14163;-26.142;27.992;2022-07-29T09:17:01;17.10;99.90
26479;DHT22;14163;-26.142;27.992;2022-07-29T09:19:32;17.40;99.90
26479;DHT22;14163;-26.142;27.992;2022-07-29T09:22:03;17.60;99.90
26479;DHT22;14163;-26.142;27.992;2022-07-29T09:24:40;17.90;99.90
26479;DHT22;14163;-26.142;27.992;2022-07-29T09:27:12;18.30;99.90
26479;DHT22;14163;-26.142;27.992;2022-07-29T09:29:46;19.20;99.90
26479;DHT22;14163;-26.142;27.992;2022-07-29T09:32:17;20.20;99.90
26479;DHT22;14163;-26.142;27.992;2022-07-29T09:34:46;21.00;99.90
26479;DHT22;14163;-26.142;27.992;2022-07-29T09:37:26;21.80;99.90
26479;DHT22;14163;-26.142;27.992;2022-07-29T09:39:56;22.50;99.90
26479;DHT22;14163;-26.142;27.992;2022-07-29T09:42:29;23.10;99.90
26479;DHT22;14163;-26.142;27.992;2022-07-29T09:45:00;23.50;99.90
26479;DHT22;14163;-26.142;27.992;2022-07-29T09:47:42;23.80;99.90
26479;DHT22;14163;-26.142;27.992;2022-07-29T09:50:14;24.20;98.80
26479;DHT22;14163;-26.142;27.992;2022-07-29T09:52:47;25.10;98.50
26479;DHT22;14163;-26.142;27.992;2022-07-29T09:55:17;26.00;97.30
26479;DHT22;14163;-26.142;27.992;2022-07-29T09:57:46;26.70;88.00
26479;DHT22;14163;-26.142;27.992;2022-07-29T10:00:17;26.50;86.00
26479;DHT22;14163;-26.142;27.992;2022-07-29T10:02:48;26.20;82.90
26479;DHT22;14163;-26.142;27.992;2022-07-29T10:05:20;26.10;84.00
26479;DHT22;14163;-26.142;27.992;2022-07-29T10:07:51;26.20;82.90
26479;DHT22;14163;-26.142;27.992;2022-07-29T10:10:21;26.20;80.80
26479;DHT22;14163;-26.142;27.992;2022-07-29T10:12:53;26.70;77.80
26479;DHT22;14163;-26.142;27.992;2022-07-29T10:15:23;27.40;75.80
26479;DHT22;14163;-26.142;27.992;2022-07-29T10:17:55;27.00;73.80
26479;DHT22;14163;-26.142;27.992;2022-07-29T10:20:25;27.40;75.70
26479;DHT22;14163;-26.142;27.992;2022-07-29T10:22:58;27.60;74.20
26479;DHT22;14163;-26.142;27.992;2022-07-29T10:25:27;27.50;73.60
26479;DHT22;14163;-26.142;27.992;2022-07-29T10:27:57;27.30;70.80
26479;DHT22;14163;-26.142;27.992;2022-07-29T10:30:26;27.00;72.50
26479;DHT22;14163;-26.142;27.992;2022-07-29T10:33:22;27.00;73.40
26479;DHT22;14163;-26.142;27.992;2022-07-29T10:36:07;27.10;73.70
26479;DHT22;14163;-26.142;27.992;2022-07-29T10:38:48;27.40;71.70
26479;DHT22;14163;-26.142;27.992;2022-07-29T10:41:34;27.40;71.50
26479;DHT22;14163;-26.142;27.992;2022-07-29T10:44:12;27.60;70.20
26479;DHT22;14163;-26.142;27.992;2022-07-29T10:46:42;27.70;71.00
26479;DHT22;14163;-26.142;27.992;2022-07-29T10:49:15;27.40;70.70
26479;DHT22;14163;-26.142;27.992;2022-07-29T10:52:03;27.70;70.20
26479;DHT22;14163;-26.142;27.992;2022-07-29T10:54:45;28.00;67.60
26479;DHT22;14163;-26.142;27.992;2022-07-29T10:57:25;27.90;65.90
26479;DHT22;14163;-26.142;27.992;2022-07-29T11:00:30;27.80;65.40
26479;DHT22;14163;-26.142;27.992;2022-07-29T11:03:00;27.80;65.60
26479;DHT22;14163;-26.142;27.992;2022-07-29T11:05:51;28.00;65.20
26479;DHT22;14163;-26.142;27.992;2022-07-29T11:08:25;28.30;65.80
26479;DHT22;14163;-26.142;27.992;2022-07-29T11:14:08;28.30;66.20
26479;DHT22;14163;-26.142;27.992;2022-07-29T11:16:58;28.50;65.40
26479;DHT22;14163;-26.142;27.992;2022-07-29T11:19:29;29.10;65.50
26479;DHT22;14163;-26.142;27.992;2022-07-29T11:22:00;29.70;64.30
26479;DHT22;14163;-26.142;27.992;2022-07-29T11:24:30;30.30;62.30
26479;DHT22;14163;-26.142;27.992;2022-07-29T11:27:21;30.40;61.70
26479;DHT22;14163;-26.142;27.992;2022-07-29T11:29:54;30.40;62.20
26479;DHT22;14163;-26.142;27.992;2022-07-29T11:32:36;30.30;60.20
26479;DHT22;14163;-26.142;27.992;2022-07-29T11:35:14;30.00;61.00
26479;DHT22;14163;-26.142;27.992;2022-07-29T11:37:46;29.40;62.20
26479;DHT22;14163;-26.142;27.992;2022-07-29T11:40:18;29.10;63.00
26479;DHT22;14163;-26.142;27.992;2022-07-29T11:42:49;28.30;63.50
26479;DHT22;14163;-26.142;27.992;2022-07-29T11:45:23;27.90;64.30
26479;DHT22;14163;-26.142;27.992;2022-07-29T11:47:56;27.20;64.80
26479;DHT22;14163;-26.142;27.992;2022-07-29T11:50:32;26.70;65.60
26479;DHT22;14163;-26.142;27.992;2022-07-29T11:53:09;26.30;66.60
26479;DHT22;14163;-26.142;27.992;2022-07-29T11:55:40;25.30;67.60
26479;DHT22;14163;-26.142;27.992;2022-07-29T11:58:09;24.80;68.20
26479;DHT22;14163;-26.142;27.992;2022-07-29T12:00:40;24.50;69.10
26479;DHT22;14163;-26.142;27.992;2022-07-29T12:03:11;24.30;70.10
26479;DHT22;14163;-26.142;27.992;2022-07-29T12:05:42;24.40;69.40
26479;DHT22;14163;-26.142;27.992;2022-07-29T12:08:14;24.10;68.40
26479;DHT22;14163;-26.142;27.992;2022-07-29T12:10:46;23.90;70.30
26479;DHT22;14163;-26.142;27.992;2022-07-29T12:13:17;23.70;71.40
26479;DHT22;14163;-26.142;27.992;2022-07-29T12:15:53;23.60;72.40
26479;DHT22;14163;-26.142;27.992;2022-07-29T12:18:22;23.60;72.30
26479;DHT22;14163;-26.142;27.992;2022-07-29T12:20:58;23.60;71.90
26479;DHT22;14163;-26.142;27.992;2022-07-29T12:23:32;23.50;72.20
26479;DHT22;14163;-26.142;27.992;2022-07-29T12:26:04;23.60;71.90
26479;DHT22;14163;-26.142;27.992;2022-07-29T12:28:37;23.40;71.90
26479;DHT22;14163;-26.142;27.992;2022-07-29T12:31:11;23.30;72.90
26479;DHT22;14163;-26.142;27.992;2022-07-29T12:33:41;23.10;73.10
26479;DHT22;14163;-26.142;27.992;2022-07-29T12:36:11;23.00;73.00
26479;DHT22;14163;-26.142;27.992;2022-07-29T12:38:44;22.80;72.70
26479;DHT22;14163;-26.142;27.992;2022-07-29T12:41:16;22.80;73.20
26479;DHT22;14163;-26.142;27.992;2022-07-29T12:43:53;22.80;72.90
26479;DHT22;14163;-26.142;27.992;2022-07-29T12:46:22;23.00;73.20
26479;DHT22;14163;-26.142;27.992;2022-07-29T12:48:52;23.20;72.90
26479;DHT22;14163;-26.142;27.992;2022-07-29T12:51:29;23.30;73.50
26479;DHT22;14163;-26.142;27.992;2022-07-29T12:54:11;23.40;73.40
26479;DHT22;14163;-26.142;27.992;2022-07-29T12:56:42;23.40;72.50
26479;DHT22;14163;-26.142;27.992;2022-07-29T12:59:15;23.60;71.40
26479;DHT22;14163;-26.142;27.992;2022-07-29T13:01:45;23.40;70.60
26479;DHT22;14163;-26.142;27.992;2022-07-29T13:04:25;22.80;71.40
26479;DHT22;14163;-26.142;27.992;2022-07-29T13:07:02;22.70;72.20
26479;DHT22;14163;-26.142;27.992;2022-07-29T13:09:41;22.80;72.90
26479;DHT22;14163;-26.142;27.992;2022-07-29T13:12:12;23.10;72.70
26479;DHT22;14163;-26.142;27.992;2022-07-29T13:14:43;23.20;72.40
26479;DHT22;14163;-26.142;27.992;2022-07-29T13:17:14;23.30;71.80
26479;DHT22;14163;-26.142;27.992;2022-07-29T13:19:45;23.40;71.10
26479;DHT22;14163;-26.142;27.992;2022-07-29T13:22:15;23.50;70.30
26479;DHT22;14163;-26.142;27.992;2022-07-29T13:24:51;23.60;70.60
26479;DHT22;14163;-26.142;27.992;2022-07-29T13:27:21;23.60;70.00
26479;DHT22;14163;-26.142;27.992;2022-07-29T13:29:51;23.40;70.70
26479;DHT22;14163;-26.142;27.992;2022-07-29T13:32:23;23.20;70.30
26479;DHT22;14163;-26.142;27.992;2022-07-29T13:34:52;23.30;71.30
26479;DHT22;14163;-26.142;27.992;2022-07-29T13:37:21;23.30;71.30
26479;DHT22;14163;-26.142;27.992;2022-07-29T13:39:53;23.30;71.40
26479;DHT22;14163;-26.142;27.992;2022-07-29T13:42:23;23.40;71.10
26479;DHT22;14163;-26.142;27.992;2022-07-29T13:44:52;23.40;70.20
26479;DHT22;14163;-26.142;27.992;2022-07-29T13:47:22;23.10;70.20
26479;DHT22;14163;-26.142;27.992;2022-07-29T13:49:51;23.00;71.10
26479;DHT22;14163;-26.142;27.992;2022-07-29T13:52:21;23.00;71.00
26479;DHT22;14163;-26.142;27.992;2022-07-29T13:54:52;22.80;72.30
26479;DHT22;14163;-26.142;27.992;2022-07-29T13:57:21;22.70;72.00
26479;DHT22;14163;-26.142;27.992;2022-07-29T13:59:50;22.60;72.10
26479;DHT22;14163;-26.142;27.992;2022-07-29T14:02:20;22.70;72.20
26479;DHT22;14163;-26.142;27.992;2022-07-29T14:04:49;22.90;71.80
26479;DHT22;14163;-26.142;27.992;2022-07-29T14:07:19;22.90;71.90
26479;DHT22;14163;-26.142;27.992;2022-07-29T14:09:48;22.80;71.80
26479;DHT22;14163;-26.142;27.992;2022-07-29T14:12:19;22.80;70.80
26479;DHT22;14163;-26.142;27.992;2022-07-29T14:14:49;22.80;71.00
26479;DHT22;14163;-26.142;27.992;2022-07-29T14:17:18;22.80;71.10
26479;DHT22;14163;-26.142;27.992;2022-07-29T14:19:47;22.70;71.80
26479;DHT22;14163;-26.142;27.992;2022-07-29T14:22:17;22.70;72.60
26479;DHT22;14163;-26.142;27.992;2022-07-29T14:24:46;22.70;72.00
26479;DHT22;14163;-26.142;27.992;2022-07-29T14:27:15;22.80;71.80
26479;DHT22;14163;-26.142;27.992;2022-07-29T14:29:46;22.90;71.40
26479;DHT22;14163;-26.142;27.992;2022-07-29T14:32:15;22.80;70.90
26479;DHT22;14163;-26.142;27.992;2022-07-29T14:34:44;22.90;70.90
26479;DHT22;14163;-26.142;27.992;2022-07-29T14:37:13;23.00;70.80
26479;DHT22;14163;-26.142;27.992;2022-07-29T14:39:43;22.80;71.00
26479;DHT22;14163;-26.142;27.992;2022-07-29T14:42:12;22.70;71.40
26479;DHT22;14163;-26.142;27.992;2022-07-29T14:44:41;22.70;71.20
26479;DHT22;14163;-26.142;27.992;2022-07-29T14:47:12;22.50;70.40
26479;DHT22;14163;-26.142;27.992;2022-07-29T14:49:41;22.50;70.60
26479;DHT22;14163;-26.142;27.992;2022-07-29T14:52:11;22.50;70.60
26479;DHT22;14163;-26.142;27.992;2022-07-29T14:54:40;22.50;70.90
26479;DHT22;14163;-26.142;27.992;2022-07-29T14:57:09;22.60;70.80
26479;DHT22;14163;-26.142;27.992;2022-07-29T14:59:39;22.70;70.60
26479;DHT22;14163;-26.142;27.992;2022-07-29T15:02:08;22.70;71.00
26479;DHT22;14163;-26.142;27.992;2022-07-29T15:04:39;22.60;72.10
26479;DHT22;14163;-26.142;27.992;2022-07-29T15:07:08;22.50;71.30
26479;DHT22;14163;-26.142;27.992;2022-07-29T15:09:37;22.60;71.60
26479;DHT22;14163;-26.142;27.992;2022-07-29T15:12:07;22.40;71.80
26479;DHT22;14163;-26.142;27.992;2022-07-29T15:14:37;22.40;72.10
26479;DHT22;14163;-26.142;27.992;2022-07-29T15:17:06;22.30;72.30
26479;DHT22;14163;-26.142;27.992;2022-07-29T15:19:37;22.40;72.40
26479;DHT22;14163;-26.142;27.992;2022-07-29T15:22:06;22.50;72.20
26479;DHT22;14163;-26.142;27.992;2022-07-29T15:24:35;22.60;72.40
26479;DHT22;14163;-26.142;27.992;2022-07-29T15:27:05;22.70;72.40
26479;DHT22;14163;-26.142;27.992;2022-07-29T15:29:34;22.60;72.80
26479;DHT22;14163;-26.142;27.992;2022-07-29T15:32:05;22.60;72.90